• Join FlightAware (Why Join?)
  • Login
  • US Flag 
12:22AM EDT


 

Airport Tracker/Info


-or-


 

Live Flight TrackerFlight Track Log ✈ THY2341 ✈ 13-Oct-2013 ✈ LTBJ / ADB - LTBA / IST

Flight Track Log - Related Links

Times and Time Zones

All times are in EDT time to prevent confusion due to time zone crossing. See the THY2341 flight status page for this flight to view local times or setup timezone preferences in your user account.

Time Position Orientation Groundspeed Altitude Reporting Facility
EDT Latitude Longitude Course Direction KTS MPH feet Rate Location/Type
04:18PM 39.2673 27.7448 25° Northeast  Level Estimated
04:19PM 39.3246 27.7799 25° Northeast  Level Estimated
04:20PM 39.3818 27.8151 25° Northeast  Level Estimated
04:21PM 39.4390 27.8503 25° Northeast  Level Estimated
04:22PM 39.4963 27.8855 25° Northeast  Level Estimated
04:23PM 39.5535 27.9208 25° Northeast  Level Estimated
04:24PM 39.6107 27.9562 25° Northeast  Level Estimated
04:25PM 39.6679 27.9916 25° Northeast  Level Estimated
04:26PM 39.7250 28.0271 26° Northeast  Level Estimated
04:27PM 39.7822 28.0627 26° Northeast  Level Estimated
04:28PM 39.8394 28.0983 26° Northeast  Level Estimated
04:29PM 39.8965 28.1340 26° Northeast  Level Estimated
04:30PM 39.9537 28.1697 26° Northeast  Level Estimated
04:31PM 40.0108 28.2055 26° Northeast  Level Estimated
04:32PM 40.0679 28.2413 26° Northeast  Level Estimated
04:33PM 40.1250 28.2772 26° Northeast  Level Estimated
04:34PM 40.1821 28.3132 26° Northeast  Level Estimated
04:35PM 40.2392 28.3492 26° Northeast  Level Estimated
04:36PM 40.2962 28.3853 26° Northeast  Level Estimated
04:37PM 40.3533 28.4215 26° Northeast  Level Estimated
04:38PM 40.4104 28.4577 26° Northeast  Level Estimated
04:39PM 40.4674 28.4940 26° Northeast  Level Estimated
04:40PM 40.5244 28.5303 26° Northeast  Level Estimated
04:41PM 40.5814 28.5667 26° Northeast  Level Estimated
04:42PM 40.6384 28.6032 26° Northeast  Level Estimated
04:43PM 40.6954 28.6397 26° Northeast  Level Estimated
04:44PM 40.7524 28.6763 26° Northeast  Level Estimated
04:45PM 40.8094 28.7129 26° Northeast  Level Estimated
04:46PM 40.8663 28.7496 26° Northeast  Level Estimated
04:47PM 40.9233 28.7864 26° Northeast  Level Estimated
04:48PM 40.9769 28.8211 26° Northeast  Level Estimated
04:49PM 40.9769 28.8211 21° North  Level Estimated
04:50PM 40.9769 28.8211 21° North  Level Estimated
04:51PM 40.9769 28.8211 21° North  Level Estimated
04:52PM 40.9769 28.8211 21° North  Level Estimated
04:53PM 40.9769 28.8211 21° North  Level Estimated
04:54PM 40.9769 28.8211 21° North  Level Estimated
04:55PM 40.9769 28.8211 21° North  Level Estimated
04:56PM 40.9769 28.8211 21° North  Level Estimated
04:57PM 40.9769 28.8211 21° North  Level Estimated
04:58PM 40.9769 28.8211 21° North  Level Estimated
04:59PM 40.9769 28.8211 21° North  Level Estimated
05:00PM 40.9769 28.8211 21° North  Level Estimated
05:01PM 40.9769 28.8211 21° North  Level Estimated
05:02PM 40.9769 28.8211 21° North  Level Estimated
05:03PM 40.9769 28.8211 21° North  Level Estimated
05:04PM 40.9769 28.8211 21° North  Level Estimated